Time;durP1;ratioP1;P1;durP2;ratioP2;P2;SDS_P1;SDS_P2;PMS_P1;PMS_P2;Temp;Humidity;BMP_temperature;BMP_pressure;BME280_temperature;BME280_humidity;BME280_pressure;Samples;Min_cycle;Max_cycle;Signal;HPM_P1;HPM_P2
2020/12/30 00:02:28;;;;;;;14.23;7.47;;;2.50;88.30;;;;;;5112764;28;20786;-82
2020/12/30 00:04:55;;;;;;;11.98;6.60;;;2.40;88.10;;;;;;5113162;28;20885;-82
2020/12/30 00:07:21;;;;;;;14.10;7.23;;;2.40;88.30;;;;;;5112820;28;20385;-81
2020/12/30 00:09:49;;;;;;;14.07;6.77;;;2.40;88.40;;;;;;5112924;28;20380;-84
2020/12/30 00:12:16;;;;;;;16.90;7.82;;;2.40;88.60;;;;;;5111459;28;20469;-81
2020/12/30 00:14:43;;;;;;;16.50;7.32;;;2.30;88.80;;;;;;5111684;28;20388;-81
2020/12/30 00:17:09;;;;;;;11.35;6.95;;;2.20;88.90;;;;;;5112168;28;20377;-81
2020/12/30 00:19:34;;;;;;;17.15;7.63;;;2.20;89.00;;;;;;5111679;28;20481;-81
2020/12/30 00:22:00;;;;;;;12.23;7.07;;;2.10;89.20;;;;;;5112765;28;20463;-81
2020/12/30 00:24:25;;;;;;;14.63;7.68;;;2.00;89.60;;;;;;5113003;28;20365;-81
2020/12/30 00:26:51;;;;;;;13.25;7.07;;;1.90;89.90;;;;;;5111972;28;20399;-81
2020/12/30 00:29:16;;;;;;;19.85;7.68;;;1.90;90.10;;;;;;5112542;28;20528;-81
2020/12/30 00:31:42;;;;;;;17.38;7.43;;;1.90;90.30;;;;;;5112676;28;20468;-81
2020/12/30 00:34:08;;;;;;;12.18;6.70;;;1.80;90.50;;;;;;5113059;28;20388;-81
2020/12/30 00:36:38;;;;;;;16.77;8.02;;;1.80;90.50;;;;;;5112200;28;20375;-81
2020/12/30 00:39:04;;;;;;;15.02;8.13;;;1.80;90.50;;;;;;5112526;28;20448;-81
2020/12/30 00:41:30;;;;;;;15.07;7.30;;;1.70;90.80;;;;;;5111920;28;20476;-81
2020/12/30 00:43:55;;;;;;;16.10;7.83;;;1.70;90.60;;;;;;5111109;28;20388;-81
2020/12/30 00:46:21;;;;;;;16.20;7.87;;;1.70;91.00;;;;;;5111027;28;20459;-81
2020/12/30 00:48:46;;;;;;;13.47;7.47;;;1.60;90.80;;;;;;5111312;28;20771;-81
2020/12/30 00:51:13;;;;;;;14.68;8.07;;;1.70;91.10;;;;;;5112095;28;20387;-81
2020/12/30 00:53:39;;;;;;;18.35;8.30;;;1.60;90.90;;;;;;5110635;28;20412;-81
2020/12/30 00:56:12;;;;;;;13.73;7.90;;;1.60;91.00;;;;;;5112362;28;20384;-81
2020/12/30 00:58:38;;;;;;;15.63;7.80;;;1.60;91.20;;;;;;5110068;28;20905;-81
2020/12/30 01:01:05;;;;;;;15.88;7.57;;;1.50;91.30;;;;;;5112068;28;20423;-82
2020/12/30 01:03:33;;;;;;;14.15;7.82;;;1.60;91.30;;;;;;5111841;28;20420;-81
2020/12/30 01:05:58;;;;;;;13.35;8.27;;;1.60;91.30;;;;;;5110115;28;20972;-81
2020/12/30 01:08:24;;;;;;;16.02;8.10;;;1.70;91.30;;;;;;5109954;28;20388;-81
2020/12/30 01:10:50;;;;;;;18.13;8.38;;;1.50;91.20;;;;;;5111635;28;20381;-81
2020/12/30 01:13:16;;;;;;;18.23;7.90;;;1.50;91.50;;;;;;5111430;28;20396;-80
2020/12/30 01:15:41;;;;;;;15.27;7.97;;;1.60;91.30;;;;;;5111969;28;20841;-82
2020/12/30 01:18:07;;;;;;;14.30;8.48;;;1.60;91.40;;;;;;5111463;28;20408;-82
2020/12/30 01:20:33;;;;;;;16.55;8.23;;;1.50;91.40;;;;;;5111333;28;20372;-82
2020/12/30 01:22:58;;;;;;;15.63;8.30;;;1.50;91.60;;;;;;5110555;28;20539;-82
2020/12/30 01:25:24;;;;;;;14.77;8.40;;;1.60;91.50;;;;;;5111070;28;20436;-80
2020/12/30 01:27:49;;;;;;;16.53;8.87;;;1.70;91.30;;;;;;5111488;28;20376;-82
2020/12/30 01:30:15;;;;;;;15.37;8.70;;;1.90;91.00;;;;;;5110156;28;20396;-82
2020/12/30 01:32:41;;;;;;;16.50;8.17;;;1.90;91.10;;;;;;5111355;28;20373;-82
2020/12/30 01:35:06;;;;;;;14.77;8.17;;;1.80;91.10;;;;;;5110804;28;20376;-82
2020/12/30 01:37:32;;;;;;;14.30;8.20;;;1.80;91.10;;;;;;5111275;28;20890;-82
2020/12/30 01:39:57;;;;;;;14.40;7.82;;;1.70;91.30;;;;;;5111522;28;20373;-79
2020/12/30 01:42:23;;;;;;;18.45;8.25;;;1.70;91.30;;;;;;5110491;28;20473;-81
2020/12/30 01:44:49;;;;;;;17.63;7.95;;;1.70;91.30;;;;;;5111452;28;20528;-82
2020/12/30 01:47:15;;;;;;;17.42;8.32;;;1.60;91.50;;;;;;5110853;28;20376;-81
2020/12/30 01:49:41;;;;;;;14.77;8.20;;;1.60;91.70;;;;;;5111879;28;20381;-81
2020/12/30 01:52:07;;;;;;;17.60;8.30;;;1.60;91.60;;;;;;5111296;28;20463;-82
2020/12/30 01:54:32;;;;;;;15.53;8.10;;;1.60;91.70;;;;;;5111682;28;20387;-81
2020/12/30 01:56:58;;;;;;;19.03;9.03;;;1.60;91.80;;;;;;5110558;28;20403;-82
2020/12/30 01:59:23;;;;;;;15.87;8.30;;;1.50;92.00;;;;;;5110555;28;20486;-82
2020/12/30 02:02:04;;;;;;;15.37;8.13;;;1.60;91.80;;;;;;5110692;28;20392;-81
2020/12/30 02:04:49;;;;;;;15.98;8.85;;;1.50;91.90;;;;;;5111263;28;20461;-81
2020/12/30 02:07:15;;;;;;;17.08;8.50;;;1.60;92.30;;;;;;5110712;28;20376;-82
2020/12/30 02:09:41;;;;;;;18.42;8.52;;;1.50;92.00;;;;;;5110565;28;20383;-81
2020/12/30 02:12:08;;;;;;;17.97;9.00;;;1.60;92.20;;;;;;5109603;28;20457;-81
2020/12/30 02:14:34;;;;;;;18.73;9.40;;;1.50;92.30;;;;;;5110720;28;20384;-82
2020/12/30 02:17:00;;;;;;;16.67;9.05;;;1.50;92.30;;;;;;5110445;28;20376;-81
2020/12/30 02:19:25;;;;;;;17.93;8.70;;;1.40;92.60;;;;;;5110660;28;20405;-81
2020/12/30 02:21:55;;;;;;;15.23;8.53;;;1.40;92.60;;;;;;5110296;28;20387;-81
2020/12/30 02:24:30;;;;;;;17.08;9.10;;;1.40;92.60;;;;;;5110906;28;20376;-81
2020/12/30 02:26:56;;;;;;;16.60;8.40;;;1.40;92.70;;;;;;5110278;28;20433;-81
2020/12/30 02:29:22;;;;;;;17.20;9.07;;;1.40;92.50;;;;;;5110574;28;20373;-81
2020/12/30 02:31:48;;;;;;;16.08;8.55;;;1.40;92.50;;;;;;5110523;28;20388;-82
2020/12/30 02:34:14;;;;;;;19.50;8.40;;;1.30;92.70;;;;;;5109266;28;20448;-81
2020/12/30 02:36:40;;;;;;;16.75;8.60;;;1.30;92.70;;;;;;5109943;28;20372;-82
2020/12/30 02:39:05;;;;;;;17.73;9.45;;;1.20;92.80;;;;;;5108996;28;20876;-81
2020/12/30 02:41:31;;;;;;;15.88;8.35;;;1.20;93.10;;;;;;5110125;28;20383;-82
2020/12/30 02:43:57;;;;;;;13.07;8.33;;;1.20;93.00;;;;;;5108749;28;20385;-82
2020/12/30 02:46:22;;;;;;;16.30;8.67;;;1.20;92.80;;;;;;5109095;28;20471;-81
2020/12/30 02:48:48;;;;;;;17.03;9.30;;;1.20;93.00;;;;;;5110065;28;20403;-82
2020/12/30 02:51:14;;;;;;;17.42;9.18;;;1.10;92.90;;;;;;5110300;28;20429;-81
2020/12/30 02:53:39;;;;;;;21.58;9.73;;;1.00;92.90;;;;;;5109174;28;20390;-81
2020/12/30 02:56:05;;;;;;;19.30;9.93;;;1.00;93.10;;;;;;5110705;28;20450;-81
2020/12/30 02:58:30;;;;;;;19.05;9.93;;;1.00;93.70;;;;;;5110178;28;20752;-81
2020/12/30 03:00:56;;;;;;;22.10;10.88;;;1.00;93.50;;;;;;5108964;28;20865;-81
2020/12/30 03:03:22;;;;;;;18.85;9.68;;;1.00;93.60;;;;;;5108529;28;20376;-81
2020/12/30 03:05:47;;;;;;;21.23;10.70;;;1.10;93.70;;;;;;5110145;28;20375;-81
2020/12/30 03:08:13;;;;;;;21.73;11.07;;;1.20;93.80;;;;;;5109682;28;20383;-81
2020/12/30 03:10:39;;;;;;;22.63;10.70;;;1.20;93.80;;;;;;5108868;28;20402;-82
2020/12/30 03:13:04;;;;;;;28.70;11.13;;;1.20;93.70;;;;;;5110044;28;20888;-79
2020/12/30 03:15:30;;;;;;;22.02;11.52;;;1.30;94.00;;;;;;5110796;28;20646;-81
2020/12/30 03:17:55;;;;;;;24.60;11.82;;;1.40;94.00;;;;;;5108238;28;20434;-81
2020/12/30 03:20:21;;;;;;;23.23;11.35;;;1.40;94.20;;;;;;5110291;28;20373;-82
2020/12/30 03:22:46;;;;;;;21.88;11.45;;;1.40;93.80;;;;;;5110103;28;20373;-81
2020/12/30 03:25:12;;;;;;;23.63;11.55;;;1.40;93.80;;;;;;5110281;28;20372;-81
2020/12/30 03:27:37;;;;;;;21.20;12.10;;;1.40;94.10;;;;;;5108386;28;20726;-81
2020/12/30 03:30:05;;;;;;;27.33;12.35;;;1.50;94.00;;;;;;5110034;28;20377;-81
2020/12/30 03:32:31;;;;;;;31.27;12.98;;;1.50;94.40;;;;;;5109987;28;20384;-81
2020/12/30 03:34:57;;;;;;;25.80;12.23;;;1.50;94.60;;;;;;5113399;28;20464;-81
2020/12/30 03:37:22;;;;;;;22.07;12.57;;;1.60;94.60;;;;;;5113055;28;20423;-81
2020/12/30 03:39:49;;;;;;;28.07;12.70;;;1.50;94.50;;;;;;5113718;28;20681;-81
2020/12/30 03:42:15;;;;;;;22.10;12.32;;;1.60;94.60;;;;;;5113834;28;20400;-81
2020/12/30 03:44:40;;;;;;;21.20;12.50;;;1.60;94.30;;;;;;5113824;28;20377;-81
2020/12/30 03:47:06;;;;;;;25.13;12.90;;;1.70;94.50;;;;;;5113370;28;20412;-81
2020/12/30 03:49:33;;;;;;;26.87;12.63;;;1.80;94.50;;;;;;5113725;28;20408;-81
2020/12/30 03:51:59;;;;;;;24.80;12.50;;;1.80;94.40;;;;;;5113630;28;20372;-81
2020/12/30 03:54:26;;;;;;;27.30;13.68;;;1.80;94.30;;;;;;5113223;28;20377;-82
2020/12/30 03:56:52;;;;;;;25.38;13.18;;;1.80;94.30;;;;;;5113117;28;20402;-82
2020/12/30 03:59:18;;;;;;;24.95;12.40;;;1.80;94.20;;;;;;5112663;28;20825;-81
2020/12/30 04:01:44;;;;;;;23.38;11.70;;;1.70;94.20;;;;;;5112211;28;20475;-82
2020/12/30 04:04:12;;;;;;;27.20;13.75;;;1.70;94.40;;;;;;5113245;28;20466;-81
2020/12/30 04:06:37;;;;;;;24.30;12.90;;;1.70;94.40;;;;;;5112522;28;20393;-81
2020/12/30 04:09:03;;;;;;;31.37;13.33;;;1.90;94.70;;;;;;5112365;28;20872;-82
2020/12/30 04:11:28;;;;;;;24.73;13.33;;;1.80;94.10;;;;;;5111890;28;20737;-81
2020/12/30 04:13:54;;;;;;;26.17;12.65;;;1.70;94.30;;;;;;5110580;28;20440;-81
2020/12/30 04:16:21;;;;;;;27.85;13.80;;;1.70;94.20;;;;;;5113005;28;20372;-82
2020/12/30 04:18:47;;;;;;;27.63;13.15;;;1.70;94.60;;;;;;5113027;28;20404;-81
2020/12/30 04:21:18;;;;;;;26.90;13.43;;;1.60;94.30;;;;;;5113129;28;20913;-82
2020/12/30 04:23:43;;;;;;;31.05;13.57;;;1.60;94.80;;;;;;5111795;28;20424;-81
2020/12/30 04:26:09;;;;;;;25.02;14.00;;;1.70;94.60;;;;;;5112694;28;20737;-81
2020/12/30 04:28:34;;;;;;;25.58;13.55;;;1.70;94.60;;;;;;5112745;28;20388;-81
2020/12/30 04:31:00;;;;;;;27.27;13.07;;;1.80;94.30;;;;;;5112893;28;20380;-82
2020/12/30 04:33:26;;;;;;;30.43;13.90;;;1.80;94.20;;;;;;5112933;28;20404;-81
2020/12/30 04:35:51;;;;;;;31.00;13.77;;;1.80;94.10;;;;;;5112754;28;20373;-82
2020/12/30 04:38:17;;;;;;;24.77;13.53;;;1.80;94.10;;;;;;5111886;28;20438;-81
2020/12/30 04:40:42;;;;;;;29.17;14.07;;;1.80;94.50;;;;;;5112403;28;20429;-81
2020/12/30 04:43:11;;;;;;;26.57;14.27;;;1.80;94.50;;;;;;5112363;28;20378;-81
2020/12/30 04:45:37;;;;;;;27.80;14.57;;;1.80;94.40;;;;;;5112027;28;20372;-81
2020/12/30 04:48:04;;;;;;;30.80;15.30;;;1.80;94.50;;;;;;5111337;28;20467;-81
2020/12/30 04:50:30;;;;;;;26.57;14.63;;;1.80;94.50;;;;;;5113078;28;20459;-81
2020/12/30 04:52:55;;;;;;;27.33;14.38;;;1.90;94.10;;;;;;5112063;28;20887;-81
2020/12/30 04:55:24;;;;;;;30.25;14.80;;;1.80;94.10;;;;;;5112389;28;20397;-81
2020/12/30 04:58:07;;;;;;;27.27;14.32;;;1.80;94.30;;;;;;5111466;28;20448;-81
2020/12/30 05:00:35;;;;;;;30.02;13.95;;;1.80;94.30;;;;;;5112345;28;20384;-82
2020/12/30 05:03:06;;;;;;;26.55;13.57;;;1.90;94.30;;;;;;5112251;28;20399;-81
2020/12/30 05:05:34;;;;;;;28.23;13.70;;;1.90;94.20;;;;;;5112023;28;20413;-81
2020/12/30 05:07:59;;;;;;;25.20;14.48;;;1.80;94.30;;;;;;5111886;28;20511;-81
2020/12/30 05:10:25;;;;;;;31.27;14.88;;;1.70;94.20;;;;;;5111697;28;20463;-81
2020/12/30 05:12:54;;;;;;;30.45;15.10;;;1.70;94.50;;;;;;5112048;28;20459;-81
2020/12/30 05:15:21;;;;;;;27.77;13.95;;;1.70;94.50;;;;;;5111699;28;20373;-81
2020/12/30 05:17:46;;;;;;;29.98;14.20;;;1.70;94.60;;;;;;5111511;28;20403;-81
2020/12/30 05:20:12;;;;;;;31.40;15.03;;;1.70;94.80;;;;;;5112168;28;20869;-82
2020/12/30 05:22:37;;;;;;;29.80;15.63;;;1.70;94.50;;;;;;5111534;28;20404;-81
2020/12/30 05:25:05;;;;;;;28.13;14.57;;;1.70;94.70;;;;;;5111823;28;20376;-81
2020/12/30 05:27:30;;;;;;;29.00;15.10;;;1.70;94.30;;;;;;5111125;28;20468;-81
2020/12/30 05:29:57;;;;;;;29.90;15.00;;;1.70;94.50;;;;;;5111429;28;20864;-81
2020/12/30 05:32:22;;;;;;;30.45;15.40;;;1.70;94.20;;;;;;5111538;28;20945;-81
2020/12/30 05:34:48;;;;;;;29.70;15.50;;;1.70;94.60;;;;;;5109961;28;20452;-81
2020/12/30 05:37:15;;;;;;;28.70;14.83;;;1.70;94.60;;;;;;5111275;28;20380;-81
2020/12/30 05:39:41;;;;;;;31.63;15.18;;;1.70;94.50;;;;;;5109878;28;20403;-82
2020/12/30 05:42:16;;;;;;;30.00;15.17;;;1.70;94.30;;;;;;5111426;28;20409;-82
2020/12/30 05:44:43;;;;;;;32.22;16.67;;;1.70;94.20;;;;;;5109826;28;20451;-81
2020/12/30 05:47:09;;;;;;;27.83;14.55;;;1.70;94.30;;;;;;5109592;28;20498;-81
2020/12/30 05:49:35;;;;;;;28.93;15.37;;;1.70;94.60;;;;;;5111150;28;20703;-82
2020/12/30 05:52:11;;;;;;;31.50;15.00;;;1.70;94.40;;;;;;5111486;28;20419;-82
2020/12/30 05:54:36;;;;;;;28.05;14.82;;;1.70;94.40;;;;;;5111035;28;20408;-81
2020/12/30 05:57:22;;;;;;;29.15;15.18;;;1.70;94.30;;;;;;5109870;28;20876;-81
2020/12/30 05:59:50;;;;;;;33.92;16.02;;;1.80;94.30;;;;;;5111179;28;20729;-82
2020/12/30 06:02:17;;;;;;;29.20;15.63;;;1.80;94.40;;;;;;5110823;28;20470;-81
2020/12/30 06:04:43;;;;;;;31.75;14.85;;;1.70;94.50;;;;;;5109893;28;20386;-81
2020/12/30 06:07:13;;;;;;;30.73;15.87;;;1.70;94.60;;;;;;5110706;28;20387;-82
2020/12/30 06:09:39;;;;;;;29.67;15.75;;;1.70;94.70;;;;;;5111404;28;20856;-82
2020/12/30 06:12:07;;;;;;;27.90;15.43;;;1.80;94.80;;;;;;5110694;28;20871;-82
2020/12/30 06:14:33;;;;;;;29.92;15.57;;;1.90;94.70;;;;;;5111053;28;20384;-82
2020/12/30 06:17:01;;;;;;;31.85;15.55;;;1.90;94.40;;;;;;5108902;28;20377;-82
2020/12/30 06:19:27;;;;;;;31.02;15.98;;;1.90;94.70;;;;;;5110741;28;20469;-82
2020/12/30 06:21:53;;;;;;;34.30;16.35;;;2.00;94.40;;;;;;5110965;28;20467;-81
2020/12/30 06:24:19;;;;;;;35.63;16.83;;;2.00;94.50;;;;;;5110710;28;20843;-82
2020/12/30 06:26:45;;;;;;;31.97;16.20;;;2.10;94.40;;;;;;5110459;28;20364;-82
2020/12/30 06:29:15;;;;;;;34.00;15.20;;;2.10;94.30;;;;;;5110339;28;20497;-81
2020/12/30 06:31:46;;;;;;;30.83;15.40;;;2.10;94.00;;;;;;5109611;28;20890;-82
2020/12/30 06:34:12;;;;;;;29.97;15.47;;;2.10;94.10;;;;;;5109203;28;20441;-82
2020/12/30 06:36:39;;;;;;;28.20;15.30;;;2.20;94.00;;;;;;5110465;28;20452;-81
2020/12/30 06:39:23;;;;;;;29.33;15.00;;;2.20;93.90;;;;;;5110492;28;20763;-82
2020/12/30 06:42:03;;;;;;;30.77;14.57;;;2.20;94.20;;;;;;5110715;28;20419;-82
2020/12/30 06:44:45;;;;;;;30.60;15.18;;;2.30;94.00;;;;;;5110644;28;20428;-82
2020/12/30 06:47:14;;;;;;;29.80;14.82;;;2.20;93.90;;;;;;5110368;28;20845;-83
2020/12/30 06:49:39;;;;;;;28.63;14.68;;;2.30;94.10;;;;;;5111015;28;20747;-83
2020/12/30 06:52:28;;;;;;;29.83;14.53;;;2.30;93.70;;;;;;5110268;28;20471;-83
2020/12/30 06:54:53;;;;;;;29.77;14.40;;;2.40;93.80;;;;;;5099088;27;20421;-83
2020/12/30 06:57:39;;;;;;;27.80;14.90;;;2.40;93.90;;;;;;5108655;28;20388;-83
2020/12/30 07:00:34;;;;;;;28.90;14.85;;;2.40;93.70;;;;;;5109883;28;20404;-83
2020/12/30 07:03:13;;;;;;;29.05;14.52;;;2.40;93.50;;;;;;5109265;28;20431;-84
2020/12/30 07:05:39;;;;;;;34.50;15.02;;;2.40;93.60;;;;;;5109781;28;20431;-84
2020/12/30 07:08:05;;;;;;;28.23;15.10;;;2.40;93.70;;;;;;5112668;28;20376;-83
2020/12/30 07:10:31;;;;;;;27.50;14.10;;;2.40;93.60;;;;;;5114042;28;20372;-83
2020/12/30 07:12:56;;;;;;;28.95;15.27;;;2.40;93.40;;;;;;5114357;28;20373;-81
2020/12/30 07:15:28;;;;;;;28.63;14.25;;;2.40;93.20;;;;;;5112724;28;20389;-83
2020/12/30 07:17:55;;;;;;;30.35;14.18;;;2.40;93.40;;;;;;5113711;28;20452;-82
2020/12/30 07:20:22;;;;;;;25.17;13.93;;;2.50;93.00;;;;;;5114149;28;20424;-84
2020/12/30 07:22:48;;;;;;;28.52;13.98;;;2.40;93.20;;;;;;5113895;28;20440;-83
2020/12/30 07:25:15;;;;;;;28.50;14.07;;;2.40;93.20;;;;;;5114119;28;20467;-83
2020/12/30 07:27:41;;;;;;;25.02;14.00;;;2.40;93.00;;;;;;5113449;28;20872;-83
2020/12/30 07:30:06;;;;;;;27.00;13.43;;;2.40;93.10;;;;;;5114369;28;20406;-83
2020/12/30 07:32:32;;;;;;;28.90;15.00;;;2.40;92.90;;;;;;5113552;28;20837;-83
2020/12/30 07:35:00;;;;;;;29.67;13.63;;;2.50;92.90;;;;;;5114030;28;20423;-83
2020/12/30 07:37:25;;;;;;;26.15;14.18;;;2.50;92.60;;;;;;5113332;28;20549;-82
2020/12/30 07:39:52;;;;;;;28.15;14.18;;;2.50;92.80;;;;;;5113824;28;20408;-83
2020/12/30 07:42:26;;;;;;;29.80;13.65;;;2.50;92.70;;;;;;5113592;28;20444;-83
2020/12/30 07:44:54;;;;;;;26.58;14.25;;;2.50;92.50;;;;;;5113819;28;20400;-83
2020/12/30 07:47:21;;;;;;;28.98;13.90;;;2.60;92.20;;;;;;5113403;28;20458;-82
2020/12/30 07:49:47;;;;;;;29.27;14.13;;;2.60;92.40;;;;;;5111874;28;20398;-81
2020/12/30 07:52:12;;;;;;;29.17;13.63;;;2.60;92.30;;;;;;5112251;28;20496;-82
2020/12/30 07:54:38;;;;;;;28.63;13.63;;;2.60;92.00;;;;;;5113325;28;20400;-81
2020/12/30 07:57:09;;;;;;;26.85;13.68;;;2.70;91.90;;;;;;5124774;27;20441;-81
2020/12/30 07:59:37;;;;;;;25.05;14.07;;;2.70;92.00;;;;;;5113265;28;20447;-81
2020/12/30 08:02:13;;;;;;;31.85;14.88;;;2.70;91.60;;;;;;5113361;28;20439;-81
2020/12/30 08:04:40;;;;;;;27.60;14.65;;;2.70;91.80;;;;;;5113096;28;20780;-81
2020/12/30 08:07:11;;;;;;;30.58;14.43;;;2.70;91.80;;;;;;5112504;28;20832;-81
2020/12/30 08:09:44;;;;;;;29.83;14.97;;;2.70;91.70;;;;;;5112785;28;20409;-80
2020/12/30 08:12:12;;;;;;;26.88;14.13;;;2.80;91.40;;;;;;5112898;28;20379;-80
2020/12/30 08:14:42;;;;;;;29.80;14.80;;;2.70;91.50;;;;;;5113041;28;20377;-81
2020/12/30 08:17:11;;;;;;;28.58;14.13;;;2.80;91.40;;;;;;5112011;28;20743;-81
2020/12/30 08:19:48;;;;;;;29.27;14.45;;;2.80;91.20;;;;;;5112051;28;20427;-79
2020/12/30 08:22:21;;;;;;;29.50;14.82;;;2.80;91.40;;;;;;5112313;27;20436;-80
2020/12/30 08:24:50;;;;;;;30.23;14.60;;;2.80;91.20;;;;;;5111366;28;20846;-79
2020/12/30 08:27:23;;;;;;;28.85;14.57;;;2.80;91.20;;;;;;5111180;28;20783;-79
2020/12/30 08:29:49;;;;;;;28.65;13.85;;;2.80;90.70;;;;;;5113083;28;20591;-80
2020/12/30 08:32:35;;;;;;;30.17;14.70;;;2.90;90.60;;;;;;5112944;28;20452;-81
2020/12/30 08:35:06;;;;;;;26.63;13.33;;;2.90;90.40;;;;;;5112583;28;20481;-81
2020/12/30 08:37:46;;;;;;;27.65;13.70;;;2.90;90.60;;;;;;5112378;28;20407;-81
2020/12/30 08:40:28;;;;;;;29.30;14.43;;;2.80;90.50;;;;;;5112542;28;20381;-81
2020/12/30 08:42:54;;;;;;;25.33;14.07;;;2.90;90.20;;;;;;5112606;28;20420;-81
2020/12/30 08:45:31;;;;;;;28.33;14.02;;;2.90;90.00;;;;;;5111213;28;20775;-81
2020/12/30 08:48:06;;;;;;;26.05;13.10;;;2.90;90.10;;;;;;5112113;28;20444;-81
2020/12/30 08:50:33;;;;;;;26.75;13.80;;;2.90;89.80;;;;;;5112596;28;20445;-82
2020/12/30 08:53:01;;;;;;;28.10;13.98;;;2.90;89.80;;;;;;5112218;28;20466;-81
2020/12/30 08:55:26;;;;;;;26.73;12.05;;;2.90;90.10;;;;;;5112772;28;20401;-82
2020/12/30 08:57:52;;;;;;;29.35;14.55;;;2.90;89.50;;;;;;5111943;28;20400;-81
2020/12/30 09:00:22;;;;;;;28.35;14.32;;;2.90;89.90;;;;;;5111114;28;20384;-82
2020/12/30 09:02:51;;;;;;;27.45;14.65;;;2.90;89.90;;;;;;5111673;28;20504;-81
2020/12/30 09:05:30;;;;;;;29.83;13.93;;;2.90;90.00;;;;;;5110970;28;20888;-82
2020/12/30 09:08:12;;;;;;;27.60;13.52;;;2.90;90.40;;;;;;5111470;28;20413;-82
2020/12/30 09:10:38;;;;;;;25.15;13.40;;;3.00;89.70;;;;;;5111898;28;20479;-82
2020/12/30 09:13:24;;;;;;;26.60;12.93;;;3.10;89.80;;;;;;5111822;27;20464;-82
2020/12/30 09:15:54;;;;;;;24.33;13.65;;;3.10;89.60;;;;;;5140515;27;20491;-82
2020/12/30 09:18:30;;;;;;;25.27;13.07;;;3.10;89.50;;;;;;5111413;28;20497;-82
2020/12/30 09:20:57;;;;;;;24.60;13.80;;;3.10;89.50;;;;;;5110298;28;20826;-82
2020/12/30 09:23:24;;;;;;;28.92;13.52;;;3.10;89.90;;;;;;5111390;28;20865;-82
2020/12/30 09:25:50;;;;;;;21.88;12.65;;;3.20;89.60;;;;;;5111764;28;20391;-82
2020/12/30 09:28:22;;;;;;;23.00;11.93;;;3.20;89.20;;;;;;5109956;28;20388;-82
2020/12/30 09:30:49;;;;;;;27.30;13.32;;;3.20;89.30;;;;;;5111400;28;20391;-82
2020/12/30 09:33:16;;;;;;;24.30;12.73;;;3.20;89.20;;;;;;5111062;28;20399;-82
2020/12/30 09:35:43;;;;;;;28.83;13.23;;;3.20;89.10;;;;;;5111891;28;20408;-82
2020/12/30 09:38:09;;;;;;;27.38;12.68;;;3.30;89.30;;;;;;5110763;28;20403;-82
2020/12/30 09:40:43;;;;;;;27.83;12.60;;;3.30;89.60;;;;;;5110228;28;20376;-82
2020/12/30 09:43:11;;;;;;;26.45;12.75;;;3.30;89.40;;;;;;5111159;28;20394;-82
2020/12/30 09:45:37;;;;;;;27.08;13.80;;;3.30;89.30;;;;;;5111226;28;20377;-82
2020/12/30 09:48:12;;;;;;;25.58;12.65;;;3.30;89.50;;;;;;5110792;28;20376;-82
2020/12/30 09:50:38;;;;;;;28.75;13.63;;;3.30;89.70;;;;;;5111341;28;20741;-83
2020/12/30 09:53:04;;;;;;;23.23;13.13;;;3.30;89.60;;;;;;5109644;28;20766;-83
2020/12/30 09:55:30;;;;;;;27.83;13.52;;;3.40;89.80;;;;;;5110829;28;20468;-82
2020/12/30 09:57:55;;;;;;;25.70;13.70;;;3.40;89.80;;;;;;5110490;28;20456;-82
2020/12/30 10:00:21;;;;;;;28.17;13.17;;;3.40;89.90;;;;;;5110890;28;20429;-82
2020/12/30 10:02:48;;;;;;;26.63;14.27;;;3.40;89.90;;;;;;5110370;28;20761;-82
2020/12/30 10:05:14;;;;;;;26.10;13.87;;;3.40;90.20;;;;;;5109469;28;20384;-81
2020/12/30 10:07:39;;;;;;;29.80;14.27;;;3.30;90.40;;;;;;5110352;28;20748;-81
2020/12/30 10:10:05;;;;;;;28.20;14.70;;;3.30;90.90;;;;;;5111016;28;20463;-81
2020/12/30 10:12:31;;;;;;;25.77;14.13;;;3.30;91.10;;;;;;5109566;28;20933;-81
2020/12/30 10:14:56;;;;;;;27.57;14.40;;;3.30;91.30;;;;;;5110383;28;20380;-81
2020/12/30 10:17:22;;;;;;;29.27;14.87;;;3.20;91.90;;;;;;5110288;28;20722;-81
2020/12/30 10:19:48;;;;;;;33.97;16.27;;;3.10;92.30;;;;;;5108478;28;20461;-81
2020/12/30 10:22:14;;;;;;;32.45;15.35;;;3.10;93.00;;;;;;5110722;28;20388;-81
2020/12/30 10:24:48;;;;;;;36.05;16.00;;;3.00;93.00;;;;;;5110513;28;20375;-80
2020/12/30 10:27:14;;;;;;;33.63;15.52;;;3.00;93.20;;;;;;5110260;28;20938;-80
2020/12/30 10:29:39;;;;;;;34.03;15.40;;;3.10;92.50;;;;;;5110787;28;20372;-80
2020/12/30 10:32:05;;;;;;;32.17;15.70;;;3.00;92.40;;;;;;5110353;28;20425;-80
2020/12/30 10:34:32;;;;;;;32.65;16.75;;;3.00;93.20;;;;;;5110740;28;20410;-80
2020/12/30 10:36:58;;;;;;;31.20;14.73;;;3.00;93.40;;;;;;5110218;28;20380;-80
2020/12/30 10:39:24;;;;;;;35.38;16.67;;;2.90;93.50;;;;;;5110622;28;20391;-80
2020/12/30 10:41:57;;;;;;;31.60;16.07;;;2.90;93.60;;;;;;5110717;28;20775;-80
2020/12/30 10:44:23;;;;;;;32.13;17.08;;;3.00;93.80;;;;;;5114776;28;20839;-80
2020/12/30 10:46:50;;;;;;;32.88;17.33;;;3.00;93.70;;;;;;5112618;28;20388;-80
2020/12/30 10:49:16;;;;;;;32.13;17.30;;;3.00;93.80;;;;;;5114237;28;20430;-80
2020/12/30 10:51:49;;;;;;;37.88;18.23;;;3.10;93.50;;;;;;5112901;28;20760;-81
2020/12/30 10:54:16;;;;;;;32.63;17.23;;;3.10;93.50;;;;;;5114531;28;20368;-80
2020/12/30 10:56:48;;;;;;;34.65;17.42;;;3.10;93.20;;;;;;5114233;28;20391;-80
2020/12/30 10:59:15;;;;;;;37.40;18.00;;;3.20;93.60;;;;;;5112897;28;20488;-81
2020/12/30 11:01:41;;;;;;;32.58;16.60;;;3.20;93.30;;;;;;5114474;28;20518;-81
2020/12/30 11:04:06;;;;;;;34.57;16.57;;;3.20;92.90;;;;;;5114439;28;20376;-80
2020/12/30 11:06:33;;;;;;;35.30;17.10;;;3.20;93.20;;;;;;5114491;28;20381;-80
2020/12/30 11:08:58;;;;;;;33.40;16.02;;;3.30;92.80;;;;;;5114287;28;20767;-80
2020/12/30 11:11:24;;;;;;;35.50;17.20;;;3.30;92.70;;;;;;5114199;28;20387;-80
2020/12/30 11:13:49;;;;;;;27.53;14.70;;;3.30;92.90;;;;;;5113892;28;20518;-80
2020/12/30 11:16:15;;;;;;;29.80;16.20;;;3.40;92.50;;;;;;5114653;28;20379;-81
2020/12/30 11:18:41;;;;;;;38.17;18.70;;;3.40;92.30;;;;;;5113390;28;20403;-79
2020/12/30 11:21:06;;;;;;;33.80;16.80;;;3.40;92.50;;;;;;5113776;28;20380;-80
2020/12/30 11:23:32;;;;;;;35.77;18.17;;;3.60;92.60;;;;;;5114262;28;20493;-80
2020/12/30 11:25:57;;;;;;;37.40;17.07;;;3.60;92.50;;;;;;5113598;28;20426;-81
2020/12/30 11:28:23;;;;;;;35.73;16.97;;;3.60;92.10;;;;;;5112212;28;20803;-80
2020/12/30 11:30:48;;;;;;;37.70;16.33;;;3.60;92.50;;;;;;5113608;28;20472;-81
2020/12/30 11:33:14;;;;;;;34.00;17.17;;;3.60;92.30;;;;;;5113749;28;20377;-81
2020/12/30 11:35:40;;;;;;;32.83;16.93;;;3.60;92.30;;;;;;5113639;28;20775;-81
2020/12/30 11:38:06;;;;;;;35.00;16.83;;;3.70;92.40;;;;;;5113241;28;20404;-80
2020/12/30 11:40:32;;;;;;;37.13;16.60;;;3.70;92.80;;;;;;5113485;28;20372;-80
2020/12/30 11:42:58;;;;;;;32.10;16.67;;;3.70;92.10;;;;;;5112264;28;20554;-80
2020/12/30 11:45:24;;;;;;;31.27;15.97;;;3.80;92.10;;;;;;5113160;28;20389;-80
2020/12/30 11:47:50;;;;;;;34.23;15.63;;;3.80;91.70;;;;;;5111834;28;20852;-80
2020/12/30 11:50:16;;;;;;;34.13;16.45;;;3.90;91.70;;;;;;5113249;28;20471;-80
2020/12/30 11:52:45;;;;;;;30.98;15.98;;;3.90;91.70;;;;;;5112873;28;20467;-81
2020/12/30 11:55:11;;;;;;;32.50;16.10;;;3.90;91.40;;;;;;5111784;28;20421;-81
2020/12/30 11:57:36;;;;;;;31.07;15.83;;;3.90;91.50;;;;;;5112694;28;20475;-80
2020/12/30 12:00:10;;;;;;;33.87;15.57;;;3.90;91.80;;;;;;5113308;28;20461;-80
2020/12/30 12:02:36;;;;;;;35.42;16.77;;;3.90;91.60;;;;;;5111749;28;20741;-80
2020/12/30 12:05:02;;;;;;;32.33;16.00;;;3.90;91.70;;;;;;5113548;28;20385;-80
2020/12/30 12:07:28;;;;;;;31.10;15.75;;;3.90;92.50;;;;;;5112451;28;20776;-81
2020/12/30 12:09:55;;;;;;;33.75;16.30;;;3.80;92.20;;;;;;5113299;28;20799;-80
2020/12/30 12:12:20;;;;;;;31.17;16.30;;;3.70;92.50;;;;;;5112770;28;20407;-80
2020/12/30 12:14:46;;;;;;;32.27;15.03;;;3.70;92.60;;;;;;5111742;28;20416;-81
2020/12/30 12:17:12;;;;;;;37.80;16.80;;;3.80;92.60;;;;;;5110970;28;20773;-80
2020/12/30 12:19:37;;;;;;;31.53;15.80;;;3.70;92.60;;;;;;5111278;28;20388;-80
2020/12/30 12:22:03;;;;;;;30.23;15.48;;;3.70;92.90;;;;;;5112823;28;20445;-80
2020/12/30 12:24:28;;;;;;;34.58;15.68;;;3.70;92.20;;;;;;5111327;28;20403;-80
2020/12/30 12:26:54;;;;;;;36.55;16.75;;;3.70;91.90;;;;;;5112369;28;20853;-80
2020/12/30 12:29:22;;;;;;;32.60;15.45;;;3.80;92.50;;;;;;5112462;28;20464;-80
2020/12/30 12:32:08;;;;;;;28.70;16.15;;;3.90;92.30;;;;;;5112856;28;20381;-80
2020/12/30 12:34:35;;;;;;;31.90;16.15;;;3.80;92.20;;;;;;5112407;28;20372;-80
2020/12/30 12:37:02;;;;;;;30.92;16.27;;;3.80;92.20;;;;;;5112500;28;20391;-80
2020/12/30 12:39:27;;;;;;;31.73;16.10;;;3.80;92.10;;;;;;5112057;28;20398;-81
2020/12/30 12:41:55;;;;;;;29.20;15.25;;;3.80;91.90;;;;;;5112310;28;20387;-81